sim
Sign-in with your pilot id or email,
or register
Callsign
Passwort

Schedule Details

Flight Number: DLH2382 (2)
Departure: Munich Airport (EDDM) at 06:00
Arrival: Geneva International Airport (LSGG) at 07:15
Route: Lufthansa Passenger Schedule. Enter filed route here before submitting Pirep.

Weather Information
Getting current METAR information for EDDM 101920Z 05004KT CAVOK 12/04 Q1013 NOSIG
Getting current METAR information for LSGG 101920Z 24004KT 200V280 CAVOK 12/03 Q1013 NOSIG

Schedule Frequency

Route Map